Terminal Aerodrome Forecast
Issued by NWS Twin Cities, MN

Home | Current Version | Previous Version | Text Only | Print | Product List | Glossary On
Versions: 1 2 3 4 5 6 7 8 9 10 11 12 13 14 15 16
000
FTUS43 KMPX 020015 AAA
TAFSTC
TAF AMD
KSTC 020015Z 0200/0224 19005KT P6SM SCT050 BKN080
      TEMPO 0200/0203 5SM -TSRA OVC060CB
     FM020600 16003KT P6SM SCT120 BKN200
      TEMPO 0207/0210 5SM -TSRA BKN050CB OVC100
     FM021400 16010KT P6SM BKN100
     FM021800 16010KT P6SM SCT050=

USA.gov is the U.S. government's official web portal to all federal, state and local government web resources and services.